createdAt,value
2023-01-29T00:00:20.188Z,60.92
2023-01-29T00:03:16.698Z,60.41
2023-01-29T00:05:54.158Z,60.31
2023-01-29T00:08:44.688Z,60.01
2023-01-29T00:11:20.480Z,60.26
2023-01-29T00:13:54.415Z,60.31
2023-01-29T00:16:25.659Z,60.25
2023-01-29T00:18:59.362Z,59.75
2023-01-29T00:21:27.737Z,58.69
2023-01-29T00:24:02.492Z,60.73
2023-01-29T00:26:31.248Z,64.21
2023-01-29T00:29:02.756Z,65.03
2023-01-29T00:31:34.450Z,64.24
2023-01-29T00:34:03.626Z,62.47
2023-01-29T00:36:39.717Z,61.67
2023-01-29T00:39:11.147Z,61.73
2023-01-29T00:42:07.293Z,61.40
2023-01-29T00:45:02.121Z,60.88
2023-01-29T00:47:45.786Z,60.34
2023-01-29T00:50:36.228Z,58.04
2023-01-29T00:53:08.000Z,57.15
2023-01-29T00:55:39.526Z,56.46
2023-01-29T00:58:28.361Z,55.82
2023-01-29T01:01:04.867Z,59.10
2023-01-29T01:03:46.507Z,66.60
2023-01-29T01:06:21.072Z,67.34
2023-01-29T01:09:19.293Z,65.98
2023-01-29T01:12:15.284Z,63.84
2023-01-29T01:14:57.401Z,62.87
2023-01-29T01:17:30.862Z,62.20
2023-01-29T01:20:05.508Z,61.30
2023-01-29T01:22:42.091Z,60.12
2023-01-29T01:25:24.614Z,59.03
2023-01-29T01:28:12.115Z,60.05
2023-01-29T01:30:57.882Z,61.39
2023-01-29T01:33:37.463Z,63.02
2023-01-29T01:36:11.571Z,65.21
2023-01-29T01:38:50.456Z,65.01
2023-01-29T01:41:23.021Z,63.24
2023-01-29T01:43:55.827Z,62.39
2023-01-29T01:46:58.286Z,61.23
2023-01-29T01:49:53.387Z,60.25
2023-01-29T01:52:24.735Z,59.62
2023-01-29T01:54:53.829Z,58.84
2023-01-29T01:57:34.591Z,58.02
2023-01-29T02:00:10.801Z,62.94
2023-01-29T02:03:04.549Z,63.72
2023-01-29T02:06:01.375Z,63.13
2023-01-29T02:08:58.790Z,61.96
2023-01-29T02:12:10.940Z,61.49
2023-01-29T02:14:53.341Z,59.93
2023-01-29T02:17:24.100Z,57.60
2023-01-29T02:20:14.161Z,55.82
2023-01-29T02:23:14.587Z,55.48
2023-01-29T02:26:54.953Z,55.74
2023-01-29T02:29:36.953Z,59.25
2023-01-29T02:32:25.260Z,58.44
2023-01-29T02:35:39.163Z,67.06
2023-01-29T02:38:46.018Z,70.21
2023-01-29T02:41:29.140Z,66.40
2023-01-29T02:44:30.183Z,63.66
2023-01-29T02:47:49.045Z,59.80
2023-01-29T02:50:32.266Z,54.71
2023-01-29T02:53:11.191Z,57.50
2023-01-29T02:57:02.557Z,58.91
2023-01-29T02:59:47.578Z,65.29
2023-01-29T03:02:28.425Z,63.87
2023-01-29T03:05:03.292Z,61.07
2023-01-29T03:07:46.101Z,60.25
2023-01-29T03:10:57.943Z,59.76
2023-01-29T03:14:13.328Z,57.70
2023-01-29T03:16:51.221Z,58.46
2023-01-29T03:19:41.464Z,62.28
2023-01-29T03:22:18.751Z,64.84
2023-01-29T03:25:15.642Z,64.06
2023-01-29T03:28:35.461Z,62.50
2023-01-29T03:31:32.334Z,61.30
2023-01-29T03:34:24.802Z,60.17
2023-01-29T03:37:04.003Z,59.79
2023-01-29T03:39:32.474Z,58.74
2023-01-29T03:43:05.814Z,59.28
2023-01-29T03:45:47.420Z,63.56
2023-01-29T03:48:41.496Z,65.20
2023-01-29T03:51:56.221Z,63.07
2023-01-29T03:54:43.435Z,60.67
2023-01-29T03:57:20.968Z,59.04
2023-01-29T04:00:18.955Z,59.32
2023-01-29T04:03:20.139Z,60.59
2023-01-29T04:06:27.132Z,61.37
2023-01-29T04:09:55.083Z,66.04
2023-01-29T04:12:49.690Z,65.73
2023-01-29T04:15:21.343Z,63.68
2023-01-29T04:17:52.831Z,62.15
2023-01-29T04:20:35.842Z,60.52
2023-01-29T04:23:20.265Z,59.57
2023-01-29T04:26:18.697Z,56.50
2023-01-29T04:29:26.657Z,57.80
2023-01-29T04:32:39.033Z,56.66
2023-01-29T04:35:36.678Z,59.67
2023-01-29T04:38:55.799Z,65.49
2023-01-29T04:41:58.316Z,65.34
2023-01-29T04:44:45.180Z,64.09
2023-01-29T04:48:07.836Z,62.09
2023-01-29T04:50:58.535Z,57.24
2023-01-29T04:53:57.831Z,59.19
2023-01-29T04:57:01.144Z,62.33
2023-01-29T05:00:19.445Z,64.17
2023-01-29T05:02:51.813Z,63.29
2023-01-29T05:05:23.305Z,61.18
2023-01-29T05:07:54.868Z,59.29
2023-01-29T05:10:35.212Z,57.55
2023-01-29T05:13:10.963Z,60.03
2023-01-29T05:15:48.884Z,59.82
2023-01-29T05:18:41.200Z,63.96
2023-01-29T05:21:09.780Z,65.21
2023-01-29T05:23:53.213Z,63.94
2023-01-29T05:26:42.893Z,61.20
2023-01-29T05:29:18.228Z,56.56
2023-01-29T05:31:52.982Z,56.06
2023-01-29T05:34:43.961Z,58.53
2023-01-29T05:37:38.530Z,61.10
2023-01-29T05:40:32.262Z,65.38
2023-01-29T05:43:25.353Z,63.93
2023-01-29T05:46:11.598Z,61.47
2023-01-29T05:49:18.155Z,57.81
2023-01-29T05:52:06.834Z,59.63
2023-01-29T05:54:46.681Z,62.94
2023-01-29T05:57:31.924Z,63.57
2023-01-29T06:00:06.038Z,61.35
2023-01-29T06:02:48.357Z,58.79
2023-01-29T06:05:22.455Z,58.78
2023-01-29T06:08:13.979Z,60.46
2023-01-29T06:10:55.355Z,62.90
2023-01-29T06:13:26.708Z,63.59
2023-01-29T06:15:58.194Z,61.20
2023-01-29T06:18:32.977Z,59.85
2023-01-29T06:21:02.806Z,58.42
2023-01-29T06:23:36.672Z,57.77
2023-01-29T06:26:11.326Z,60.40
2023-01-29T06:28:42.466Z,62.81
2023-01-29T06:31:27.439Z,63.55
2023-01-29T06:34:05.330Z,61.33
2023-01-29T06:36:39.444Z,60.56
2023-01-29T06:39:10.892Z,60.12
2023-01-29T06:41:39.450Z,57.44
2023-01-29T06:44:07.896Z,57.25
2023-01-29T06:46:44.065Z,59.92
2023-01-29T06:49:15.259Z,59.87
2023-01-29T06:51:48.549Z,60.84
2023-01-29T06:54:20.101Z,65.29
2023-01-29T06:56:48.687Z,64.45
2023-01-29T06:59:25.560Z,60.97
2023-01-29T07:01:57.128Z,57.27
2023-01-29T07:04:27.954Z,54.59
2023-01-29T07:07:00.328Z,54.15
2023-01-29T07:09:31.670Z,57.25
2023-01-29T07:12:00.086Z,61.67
2023-01-29T07:14:31.567Z,63.25
2023-01-29T07:17:05.471Z,61.89
2023-01-29T07:19:43.093Z,59.61
2023-01-29T07:22:11.883Z,58.15
2023-01-29T07:24:45.789Z,59.59
2023-01-29T07:27:14.319Z,60.95
2023-01-29T07:29:45.820Z,63.52
2023-01-29T07:32:20.091Z,63.31
2023-01-29T07:34:51.280Z,60.72
2023-01-29T07:37:21.807Z,60.35
2023-01-29T07:39:53.157Z,57.32
2023-01-29T07:42:23.686Z,56.33
2023-01-29T07:44:59.945Z,58.52
2023-01-29T07:47:31.270Z,60.69
2023-01-29T07:49:59.707Z,62.57
2023-01-29T07:52:31.231Z,63.30
2023-01-29T07:55:02.780Z,61.91
2023-01-29T07:57:33.608Z,58.57
2023-01-29T08:00:10.390Z,58.25
2023-01-29T08:02:44.185Z,59.94
2023-01-29T08:05:12.838Z,61.74
2023-01-29T08:08:06.073Z,62.94
2023-01-29T08:10:40.875Z,62.19
2023-01-29T08:13:09.664Z,60.41
2023-01-29T08:15:48.476Z,58.27
2023-01-29T08:18:16.932Z,57.82
2023-01-29T08:21:16.384Z,59.73
2023-01-29T08:23:52.311Z,61.14
2023-01-29T08:26:23.962Z,62.94
2023-01-29T08:28:55.107Z,63.23
2023-01-29T08:31:25.508Z,60.15
2023-01-29T08:34:26.793Z,58.11
2023-01-29T08:36:55.572Z,57.99
2023-01-29T08:39:33.107Z,60.01
2023-01-29T08:42:06.863Z,61.84
2023-01-29T08:44:39.847Z,62.20
2023-01-29T08:47:08.325Z,63.81
2023-01-29T08:49:55.853Z,61.61
2023-01-29T08:52:29.968Z,59.14
2023-01-29T08:55:04.462Z,57.36
2023-01-29T08:57:35.418Z,59.21
2023-01-29T09:00:09.489Z,61.28
2023-01-29T09:02:38.061Z,62.53
2023-01-29T09:05:09.980Z,62.67
2023-01-29T09:07:46.752Z,60.29
2023-01-29T09:10:35.584Z,57.63
2023-01-29T09:13:09.124Z,58.72
2023-01-29T09:15:40.695Z,60.49
2023-01-29T09:18:09.254Z,61.38
2023-01-29T09:20:56.016Z,62.91
2023-01-29T09:23:30.059Z,63.93
2023-01-29T09:25:58.539Z,62.64
2023-01-29T09:28:43.403Z,60.95
2023-01-29T09:31:17.545Z,57.89
2023-01-29T09:33:52.139Z,54.26
2023-01-29T09:36:23.996Z,55.45
2023-01-29T09:38:55.964Z,55.33
2023-01-29T09:42:12.321Z,56.59
2023-01-29T09:45:16.592Z,58.56
2023-01-29T09:47:50.932Z,59.25
2023-01-29T09:50:46.384Z,60.38
2023-01-29T09:53:33.072Z,61.18
2023-01-29T09:56:28.791Z,62.70
2023-01-29T09:59:38.683Z,62.04
2023-01-29T10:02:10.969Z,57.79
2023-01-29T10:05:18.767Z,54.47
2023-01-29T10:08:25.691Z,56.79
2023-01-29T10:12:27.811Z,57.84
2023-01-29T10:15:31.932Z,58.93
2023-01-29T10:18:22.470Z,59.96
2023-01-29T10:21:14.049Z,60.62
2023-01-29T10:23:59.414Z,60.20
2023-01-29T10:26:35.097Z,60.40
2023-01-29T10:29:12.957Z,61.51
2023-01-29T10:31:44.919Z,61.59
2023-01-29T10:34:35.931Z,61.73
2023-01-29T10:37:33.702Z,62.33
2023-01-29T10:40:59.941Z,62.17
2023-01-29T10:43:53.717Z,58.45
2023-01-29T10:47:12.081Z,54.09
2023-01-29T10:50:15.347Z,54.81
2023-01-29T10:53:31.045Z,56.93
2023-01-29T10:57:02.448Z,58.03
2023-01-29T11:00:18.430Z,58.96
2023-01-29T11:02:51.583Z,58.96
2023-01-29T11:06:11.694Z,59.47
2023-01-29T11:09:20.839Z,59.59
2023-01-29T11:12:01.041Z,60.29
2023-01-29T11:15:01.498Z,60.63
2023-01-29T11:17:30.066Z,60.77
2023-01-29T11:20:01.028Z,61.02
2023-01-29T11:22:33.272Z,60.97
2023-01-29T11:25:21.030Z,61.03
2023-01-29T11:28:02.798Z,60.89
2023-01-29T11:30:35.922Z,60.68
2023-01-29T11:33:23.761Z,60.73
2023-01-29T11:35:57.214Z,60.46
2023-01-29T11:38:32.350Z,59.99
2023-01-29T11:41:08.164Z,60.58
2023-01-29T11:43:38.797Z,61.17
2023-01-29T11:46:12.663Z,60.63
2023-01-29T11:48:51.542Z,60.95
2023-01-29T11:51:33.810Z,60.72
2023-01-29T11:54:02.969Z,60.76
2023-01-29T11:56:46.724Z,60.50
2023-01-29T11:59:50.057Z,60.42
2023-01-29T12:03:11.518Z,60.00
2023-01-29T12:05:40.772Z,59.68
2023-01-29T12:08:18.015Z,59.34
2023-01-29T12:10:49.179Z,60.27
2023-01-29T12:13:27.018Z,60.23
2023-01-29T12:16:19.155Z,60.39
2023-01-29T12:19:10.769Z,60.24
2023-01-29T12:21:52.795Z,60.33
2023-01-29T12:25:22.229Z,59.76
2023-01-29T12:28:41.781Z,59.89
2023-01-29T12:31:27.801Z,60.68
2023-01-29T12:34:53.302Z,61.02
2023-01-29T12:37:39.586Z,61.26
2023-01-29T12:40:18.476Z,61.26
2023-01-29T12:42:52.376Z,60.99
2023-01-29T12:45:25.245Z,60.49
2023-01-29T12:48:00.950Z,60.74
2023-01-29T12:50:36.789Z,60.84
2023-01-29T12:53:41.838Z,60.74
2023-01-29T12:56:16.771Z,60.76
2023-01-29T12:58:48.162Z,60.73
2023-01-29T13:01:34.623Z,60.70
2023-01-29T13:04:27.368Z,60.44
2023-01-29T13:07:19.234Z,60.21
2023-01-29T13:09:51.375Z,60.70
2023-01-29T13:12:20.988Z,60.58
2023-01-29T13:14:56.921Z,60.22
2023-01-29T13:17:36.187Z,60.03
2023-01-29T13:20:23.275Z,60.15
2023-01-29T13:23:22.892Z,60.25
2023-01-29T13:25:57.304Z,59.95
2023-01-29T13:28:27.049Z,60.52
2023-01-29T13:31:35.446Z,60.27
2023-01-29T13:34:22.541Z,60.69
2023-01-29T13:36:59.827Z,60.46
2023-01-29T13:39:37.968Z,60.37
2023-01-29T13:42:20.645Z,59.69
2023-01-29T13:44:55.376Z,60.56
2023-01-29T13:47:49.249Z,60.13
2023-01-29T13:50:36.697Z,60.64
2023-01-29T13:53:09.145Z,60.25
2023-01-29T13:55:50.951Z,60.72
2023-01-29T13:58:45.837Z,60.71
2023-01-29T14:01:49.732Z,60.47
2023-01-29T14:04:29.274Z,61.38
2023-01-29T14:07:03.497Z,61.56
2023-01-29T14:10:23.589Z,61.60
2023-01-29T14:13:12.041Z,61.45
2023-01-29T14:15:40.315Z,61.74
2023-01-29T14:18:11.580Z,61.80
2023-01-29T14:21:08.126Z,62.07
2023-01-29T14:23:47.093Z,62.19
2023-01-29T14:26:36.361Z,62.06
2023-01-29T14:29:25.491Z,62.40
2023-01-29T14:32:01.931Z,65.96
2023-01-29T14:35:01.424Z,63.36
2023-01-29T14:37:48.327Z,61.33
2023-01-29T14:40:19.589Z,58.79
2023-01-29T14:42:57.487Z,55.42
2023-01-29T14:45:34.550Z,54.89
2023-01-29T14:48:10.110Z,55.71
2023-01-29T14:50:48.828Z,57.38
2023-01-29T14:53:23.455Z,58.23
2023-01-29T14:56:10.816Z,59.55
2023-01-29T14:58:47.343Z,60.10
2023-01-29T15:01:40.243Z,59.82
2023-01-29T15:04:23.800Z,59.23
2023-01-29T15:07:39.110Z,60.92
2023-01-29T15:10:23.328Z,65.11
2023-01-29T15:13:08.094Z,61.78
2023-01-29T15:16:04.847Z,60.62
2023-01-29T15:18:43.192Z,57.49
2023-01-29T15:21:14.319Z,54.91
2023-01-29T15:23:48.360Z,56.37
2023-01-29T15:26:33.114Z,57.44
2023-01-29T15:29:04.547Z,57.72
2023-01-29T15:31:46.876Z,59.07
2023-01-29T15:34:25.049Z,61.67
2023-01-29T15:36:53.527Z,61.18
2023-01-29T15:39:42.790Z,61.25
2023-01-29T15:42:21.840Z,62.15
2023-01-29T15:44:50.212Z,66.25
2023-01-29T15:47:28.877Z,67.45
2023-01-29T15:49:57.625Z,62.76
2023-01-29T15:52:35.294Z,58.55
2023-01-29T15:55:06.081Z,55.83
2023-01-29T15:57:40.686Z,55.09
2023-01-29T16:00:23.178Z,55.54
2023-01-29T16:02:51.886Z,58.95
2023-01-29T16:05:30.186Z,58.53
2023-01-29T16:07:58.944Z,58.97
2023-01-29T16:10:55.898Z,60.54
2023-01-29T16:13:36.975Z,63.13
2023-01-29T16:16:17.271Z,64.07
2023-01-29T16:18:59.975Z,63.04
2023-01-29T16:21:37.955Z,59.00
2023-01-29T16:24:22.544Z,55.96
2023-01-29T16:26:59.600Z,56.18
2023-01-29T16:29:34.253Z,57.65
2023-01-29T16:32:16.395Z,58.67
2023-01-29T16:34:48.261Z,61.58
2023-01-29T16:37:29.238Z,61.13
2023-01-29T16:40:00.108Z,62.56
2023-01-29T16:42:32.355Z,65.03
2023-01-29T16:45:02.765Z,62.13
2023-01-29T16:47:43.846Z,58.51
2023-01-29T16:50:35.893Z,56.99
2023-01-29T16:53:27.425Z,58.67
2023-01-29T16:56:07.569Z,59.80
2023-01-29T16:58:36.084Z,60.29
2023-01-29T17:01:10.299Z,60.92
2023-01-29T17:03:43.880Z,63.39
2023-01-29T17:06:17.468Z,66.23
2023-01-29T17:08:46.227Z,64.45
2023-01-29T17:11:33.552Z,60.25
2023-01-29T17:14:09.280Z,58.06
2023-01-29T17:17:13.040Z,57.72
2023-01-29T17:19:44.558Z,57.94
2023-01-29T17:22:18.498Z,59.85
2023-01-29T17:24:49.193Z,60.07
2023-01-29T17:27:30.938Z,62.58
2023-01-29T17:29:59.365Z,64.06
2023-01-29T17:32:44.541Z,62.74
2023-01-29T17:35:20.479Z,58.70
2023-01-29T17:37:49.289Z,57.59
2023-01-29T17:40:49.269Z,59.65
2023-01-29T17:43:17.575Z,60.34
2023-01-29T17:45:49.482Z,60.57
2023-01-29T17:48:25.461Z,64.73
2023-01-29T17:50:56.564Z,63.67
2023-01-29T17:53:46.826Z,63.94
2023-01-29T17:56:30.666Z,63.81
2023-01-29T17:59:19.533Z,57.92
2023-01-29T18:02:09.691Z,56.99
2023-01-29T18:05:06.921Z,59.45
2023-01-29T18:07:45.655Z,62.78
2023-01-29T18:10:23.778Z,63.84
2023-01-29T18:12:55.003Z,61.37
2023-01-29T18:15:23.977Z,61.78
2023-01-29T18:17:53.265Z,58.74
2023-01-29T18:20:23.991Z,57.03
2023-01-29T18:23:19.432Z,58.32
2023-01-29T18:25:47.946Z,59.80
2023-01-29T18:28:17.342Z,60.74
2023-01-29T18:30:51.473Z,64.92
2023-01-29T18:33:24.548Z,65.43
2023-01-29T18:35:56.404Z,65.29
2023-01-29T18:38:30.312Z,58.78
2023-01-29T18:41:07.594Z,56.70
2023-01-29T18:44:01.888Z,57.41
2023-01-29T18:46:33.871Z,59.86
2023-01-29T18:49:05.334Z,61.18
2023-01-29T18:51:34.082Z,64.09
2023-01-29T18:54:02.637Z,66.97
2023-01-29T18:56:31.285Z,62.17
2023-01-29T18:59:00.038Z,57.80
2023-01-29T19:01:32.402Z,56.64
2023-01-29T19:04:04.062Z,59.16
2023-01-29T19:06:38.046Z,60.03
2023-01-29T19:09:07.060Z,63.71
2023-01-29T19:11:38.284Z,63.58
2023-01-29T19:14:06.905Z,61.56
2023-01-29T19:16:38.437Z,57.98
2023-01-29T19:19:06.769Z,55.23
2023-01-29T19:21:37.144Z,56.95
2023-01-29T19:24:06.750Z,60.69
2023-01-29T19:26:36.264Z,62.42
2023-01-29T19:29:16.404Z,65.86
2023-01-29T19:31:47.777Z,64.40
2023-01-29T19:34:16.439Z,62.06
2023-01-29T19:36:45.025Z,56.54
2023-01-29T19:39:24.150Z,55.68
2023-01-29T19:41:57.542Z,59.03
2023-01-29T19:44:31.455Z,59.62
2023-01-29T19:47:02.471Z,61.21
2023-01-29T19:49:31.505Z,64.01
2023-01-29T19:52:01.379Z,64.72
2023-01-29T19:54:30.422Z,64.58
2023-01-29T19:57:04.528Z,62.97
2023-01-29T19:59:36.664Z,62.45
2023-01-29T20:02:05.649Z,61.47
2023-01-29T20:04:37.004Z,58.53
2023-01-29T20:07:05.718Z,57.29
2023-01-29T20:09:34.180Z,56.83
2023-01-29T20:12:04.900Z,57.03
2023-01-29T20:14:33.824Z,60.48
2023-01-29T20:17:02.375Z,64.50
2023-01-29T20:19:35.154Z,65.03
2023-01-29T20:22:03.460Z,63.85
2023-01-29T20:24:39.282Z,62.09
2023-01-29T20:27:07.557Z,60.18
2023-01-29T20:29:43.924Z,58.02
2023-01-29T20:32:15.153Z,58.02
2023-01-29T20:34:53.170Z,60.68
2023-01-29T20:37:25.027Z,63.98
2023-01-29T20:39:53.656Z,64.28
2023-01-29T20:42:27.588Z,62.75
2023-01-29T20:44:58.761Z,60.99
2023-01-29T20:47:35.373Z,59.22
2023-01-29T20:50:08.688Z,57.51
2023-01-29T20:52:38.035Z,57.77
2023-01-29T20:55:15.720Z,58.94
2023-01-29T20:58:05.761Z,62.99
2023-01-29T21:00:35.041Z,64.79
2023-01-29T21:03:22.662Z,64.16
2023-01-29T21:05:54.516Z,61.91
2023-01-29T21:08:22.982Z,60.29
2023-01-29T21:11:00.424Z,58.67
2023-01-29T21:13:31.488Z,57.75
2023-01-29T21:16:06.082Z,59.11
2023-01-29T21:18:40.035Z,60.39
2023-01-29T21:21:11.184Z,64.36
2023-01-29T21:23:40.084Z,65.71
2023-01-29T21:26:11.010Z,64.60
2023-01-29T21:28:42.558Z,61.94
2023-01-29T21:31:20.163Z,60.50
2023-01-29T21:33:53.645Z,58.31
2023-01-29T21:36:35.207Z,58.46
2023-01-29T21:39:16.677Z,60.54
2023-01-29T21:42:07.202Z,62.18
2023-01-29T21:44:41.529Z,65.13
2023-01-29T21:47:13.079Z,64.74
2023-01-29T21:49:51.597Z,64.26
2023-01-29T21:52:33.595Z,62.98
2023-01-29T21:55:32.807Z,60.28
2023-01-29T21:58:05.691Z,58.48
2023-01-29T22:01:35.804Z,59.01
2023-01-29T22:04:20.460Z,62.96
2023-01-29T22:06:56.729Z,65.76
2023-01-29T22:10:14.013Z,64.65
2023-01-29T22:12:54.103Z,62.03
2023-01-29T22:15:30.988Z,61.34
2023-01-29T22:18:02.734Z,60.79
2023-01-29T22:20:47.625Z,59.32
2023-01-29T22:23:23.854Z,57.40
2023-01-29T22:26:06.985Z,58.44
2023-01-29T22:28:40.475Z,59.47
2023-01-29T22:31:22.990Z,64.12
2023-01-29T22:33:53.335Z,64.60
2023-01-29T22:36:22.004Z,62.42
2023-01-29T22:38:50.383Z,62.23
2023-01-29T22:41:21.216Z,60.53
2023-01-29T22:43:52.553Z,60.88
2023-01-29T22:46:21.094Z,59.95
2023-01-29T22:48:52.375Z,58.28
2023-01-29T22:51:20.781Z,56.59
2023-01-29T22:53:54.812Z,59.18
2023-01-29T22:56:25.912Z,61.05
2023-01-29T22:58:56.218Z,64.72
2023-01-29T23:01:30.213Z,65.75
2023-01-29T23:04:03.843Z,64.40
2023-01-29T23:06:51.507Z,62.64
2023-01-29T23:09:25.900Z,61.44
2023-01-29T23:11:57.240Z,60.76
2023-01-29T23:14:32.067Z,60.51
2023-01-29T23:17:00.623Z,59.74
2023-01-29T23:19:32.057Z,57.52
2023-01-29T23:22:05.392Z,58.94
2023-01-29T23:24:33.972Z,60.44
2023-01-29T23:27:25.595Z,63.88
2023-01-29T23:29:54.119Z,66.33
2023-01-29T23:32:25.217Z,65.99
2023-01-29T23:34:54.101Z,64.55
2023-01-29T23:37:22.589Z,62.38
2023-01-29T23:39:53.472Z,61.76
2023-01-29T23:42:24.871Z,61.75
2023-01-29T23:45:15.142Z,59.71
2023-01-29T23:47:46.000Z,57.39
2023-01-29T23:50:14.561Z,57.83
2023-01-29T23:52:45.928Z,59.92
2023-01-29T23:55:14.553Z,62.59
2023-01-29T23:57:45.344Z,64.66
